Terminal Aerodrome Forecast
Issued by NWS Twin Cities, MN

Home | Current Version | Previous Version | Text Only | Print | Product List | Glossary Off
Versions: 1 2 3 4 5 6 7 8 9 10 11 12 13 14 15 16 17 18 19 20 21 22 23

057
FTUS43 KMPX 182320
TAFEAU
TAF
KEAU 182320Z 1900/1924 20008KT 6SM BR SKC
     FM190200 20004KT 3SM BR SCT004
     FM190600 19003KT 3/4SM BR VV002
     FM191400 16006KT 2SM BR OVC005=

USA.gov is the U.S. government's official web portal to all federal, state and local government web resources and services.